Time;durP1;ratioP1;P1;durP2;ratioP2;P2;SDS_P1;SDS_P2;PMS_P1;PMS_P2;Temp;Humidity;BMP_temperature;BMP_pressure;BME280_temperature;BME280_humidity;BME280_pressure;Samples;Min_cycle;Max_cycle;Signal;HPM_P1;HPM_P2
2023/09/27 06:09:09;;;;;;;3.70;2.33;;;;;;;;;;5558688;22;20488;-66
2023/09/27 06:11:36;;;;;;;4.40;2.90;;;;;;;;;;5023630;28;20452;-68
2023/09/27 06:14:05;;;;;;;4.63;2.73;;;;;;;;;;5024001;28;20816;-67
2023/09/27 06:16:32;;;;;;;4.10;2.37;;;;;;;;;;5020767;28;20459;-67
2023/09/27 06:18:59;;;;;;;3.97;2.53;;;;;;;;;;5021801;28;20477;-67
2023/09/27 06:21:26;;;;;;;5.27;2.10;;;;;;;;;;5014235;28;20507;-67
2023/09/27 06:23:53;;;;;;;3.67;1.97;;;;;;;;;;5013912;28;20487;-67
2023/09/27 06:26:29;;;;;;;4.07;2.87;;;;;;;;;;5013082;28;20466;-67
2023/09/27 06:28:56;;;;;;;3.80;2.40;;;;;;;;;;5013686;28;20522;-66
2023/09/27 06:31:23;;;;;;;4.03;2.13;;;;;;;;;;5013182;28;20448;-67
2023/09/27 06:33:51;;;;;;;3.73;2.43;;;;;;;;;;5010067;28;20808;-67
2023/09/27 06:36:21;;;;;;;3.80;2.30;;;;;;;;;;5013868;28;20459;-67
2023/09/27 06:38:48;;;;;;;4.50;2.00;;;;;;;;;;5014131;28;20476;-68
2023/09/27 06:41:16;;;;;;;3.80;2.70;;;;;;;;;;5012475;28;21068;-68
2023/09/27 06:43:45;;;;;;;4.30;3.00;;;;;;;;;;5014226;28;20460;-67
2023/09/27 06:46:13;;;;;;;3.70;2.80;;;;;;;;;;5013601;28;20837;-67
2023/09/27 06:48:41;;;;;;;5.87;3.53;;;;;;;;;;5013468;28;20480;-67
2023/09/27 06:51:08;;;;;;;3.30;2.43;;;;;;;;;;5011559;28;20830;-67
2023/09/27 06:53:35;;;;;;;6.33;2.80;;;;;;;;;;5008351;28;20463;-67
2023/09/27 06:56:03;;;;;;;3.70;2.63;;;;;;;;;;5013307;28;20460;-67
2023/09/27 06:58:30;;;;;;;4.97;3.10;;;;;;;;;;5017413;28;20481;-67
2023/09/27 07:00:58;;;;;;;4.53;2.73;;;;;;;;;;5016103;28;20475;-67
2023/09/27 07:03:29;;;;;;;3.43;2.27;;;;;;;;;;5015687;28;20440;-67
2023/09/27 07:05:57;;;;;;;5.57;2.90;;;;;;;;;;5016422;28;20486;-67
2023/09/27 07:08:24;;;;;;;3.57;2.07;;;;;;;;;;5017130;28;20474;-67
2023/09/27 07:10:51;;;;;;;3.77;2.60;;;;;;;;;;5016451;28;20967;-68
2023/09/27 07:13:18;;;;;;;4.73;3.37;;;;;;;;;;5016999;28;20443;-67
2023/09/27 07:15:46;;;;;;;3.77;2.90;;;;;;;;;;5016774;28;20863;-69
2023/09/27 07:18:15;;;;;;;3.30;2.23;;;;;;;;;;5016491;28;20447;-68
2023/09/27 07:20:42;;;;;;;4.63;3.37;;;;;;;;;;5018234;28;20455;-67
2023/09/27 07:23:14;;;;;;;4.77;3.03;;;;;;;;;;5025985;28;20456;-67
2023/09/27 07:25:42;;;;;;;4.40;2.13;;;;;;;;;;5026648;28;20804;-67
2023/09/27 07:28:10;;;;;;;5.50;3.50;;;;;;;;;;5022902;28;20470;-67
2023/09/27 07:30:37;;;;;;;4.27;2.87;;;;;;;;;;5017415;28;20452;-67
2023/09/27 07:33:08;;;;;;;6.10;3.17;;;;;;;;;;5010639;28;20448;-67
2023/09/27 07:35:41;;;;;;;3.40;2.67;;;;;;;;;;5014646;28;20454;-67
2023/09/27 07:38:09;;;;;;;5.60;2.90;;;;;;;;;;5008147;28;20480;-67
2023/09/27 07:40:36;;;;;;;4.60;2.30;;;;;;;;;;5002818;28;20744;-67
2023/09/27 07:43:04;;;;;;;4.13;2.47;;;;;;;;;;5007441;28;20527;-67
2023/09/27 07:45:35;;;;;;;5.83;2.80;;;;;;;;;;5002848;28;20539;-67
2023/09/27 07:48:02;;;;;;;3.07;2.23;;;;;;;;;;5014583;28;20447;-68
2023/09/27 07:50:31;;;;;;;3.40;2.43;;;;;;;;;;5015750;28;20444;-69
2023/09/27 07:53:03;;;;;;;5.77;3.13;;;;;;;;;;5003249;28;20445;-69
2023/09/27 07:55:32;;;;;;;8.33;2.80;;;;;;;;;;5012316;28;20463;-68
2023/09/27 07:57:59;;;;;;;4.20;2.50;;;;;;;;;;5014784;28;20472;-68
2023/09/27 08:00:28;;;;;;;6.20;3.10;;;;;;;;;;5014960;28;20448;-68
2023/09/27 08:02:57;;;;;;;4.97;2.17;;;;;;;;;;5008570;28;20480;-67
2023/09/27 08:05:24;;;;;;;4.23;2.60;;;;;;;;;;5003276;28;20646;-67
2023/09/27 08:07:51;;;;;;;4.87;2.93;;;;;;;;;;5011578;28;20768;-66
2023/09/27 08:10:20;;;;;;;5.07;3.50;;;;;;;;;;5008316;28;20479;-67
2023/09/27 08:12:48;;;;;;;4.80;2.90;;;;;;;;;;5013967;28;20507;-67
2023/09/27 08:15:17;;;;;;;5.00;2.57;;;;;;;;;;5011845;28;20444;-66
2023/09/27 08:17:46;;;;;;;7.10;2.87;;;;;;;;;;5014996;28;20448;-67
2023/09/27 08:20:13;;;;;;;4.23;3.17;;;;;;;;;;5010416;28;20498;-67
2023/09/27 08:22:40;;;;;;;3.90;2.47;;;;;;;;;;5012661;28;20901;-67
2023/09/27 08:25:14;;;;;;;4.20;2.33;;;;;;;;;;5011676;28;20448;-67
2023/09/27 08:27:42;;;;;;;4.50;2.40;;;;;;;;;;5011199;28;20547;-67
2023/09/27 08:30:11;;;;;;;4.10;2.27;;;;;;;;;;5012786;28;20472;-66
2023/09/27 08:32:40;;;;;;;3.80;2.97;;;;;;;;;;5014039;28;20448;-67
2023/09/27 08:35:08;;;;;;;4.70;2.93;;;;;;;;;;5012984;28;20896;-67
2023/09/27 08:37:36;;;;;;;4.40;2.13;;;;;;;;;;5013590;28;20483;-66
2023/09/27 08:40:05;;;;;;;4.80;2.77;;;;;;;;;;5010320;28;20476;-66
2023/09/27 08:42:33;;;;;;;4.30;1.97;;;;;;;;;;5010027;28;20480;-67
2023/09/27 08:45:02;;;;;;;4.17;2.93;;;;;;;;;;5011107;28;20457;-67
2023/09/27 08:47:31;;;;;;;4.00;2.40;;;;;;;;;;5011671;28;20536;-67
2023/09/27 08:49:59;;;;;;;3.63;2.47;;;;;;;;;;5008126;28;20475;-67
2023/09/27 08:52:27;;;;;;;3.57;2.63;;;;;;;;;;5014838;28;20436;-67
2023/09/27 08:54:54;;;;;;;2.70;2.00;;;;;;;;;;5008021;28;20469;-67
2023/09/27 08:57:22;;;;;;;3.50;2.20;;;;;;;;;;5011165;28;20829;-67
2023/09/27 08:59:49;;;;;;;3.93;2.20;;;;;;;;;;5015091;28;20460;-66
2023/09/27 09:02:18;;;;;;;3.20;1.90;;;;;;;;;;5011717;28;20486;-67
2023/09/27 09:04:46;;;;;;;5.00;2.00;;;;;;;;;;5012943;28;20451;-67
2023/09/27 09:09:49;;;;;;;3.40;2.00;;;;;;;;;;4863424;26;20491;-63
2023/09/27 09:12:17;;;;;;;3.97;2.40;;;;;;;;;;5032182;28;20451;-64
2023/09/27 09:14:49;;;;;;;4.33;2.00;;;;;;;;;;5033442;28;20474;-63
2023/09/27 09:17:18;;;;;;;3.83;1.93;;;;;;;;;;5033447;28;20442;-62
2023/09/27 09:20:13;;;;;;;3.30;2.27;;;;;;;;;;5033352;28;20459;-63
2023/09/27 09:22:44;;;;;;;2.90;1.83;;;;;;;;;;5031993;28;20541;-62
2023/09/27 09:25:11;;;;;;;3.10;1.83;;;;;;;;;;5031855;28;20482;-62
2023/09/27 09:27:38;;;;;;;3.40;2.00;;;;;;;;;;5029124;28;20487;-62
2023/09/27 09:30:07;;;;;;;3.77;1.87;;;;;;;;;;5033072;28;21030;-62
2023/09/27 09:32:35;;;;;;;2.90;2.07;;;;;;;;;;5027051;28;20443;-62
2023/09/27 09:35:06;;;;;;;3.53;1.80;;;;;;;;;;5033222;28;20451;-63
2023/09/27 09:37:35;;;;;;;3.53;1.90;;;;;;;;;;5022241;28;20459;-63
2023/09/27 09:40:12;;;;;;;3.80;1.90;;;;;;;;;;5032231;28;20463;-62
2023/09/27 09:42:40;;;;;;;3.10;1.70;;;;;;;;;;5032228;28;20474;-62
2023/09/27 09:45:10;;;;;;;3.20;1.93;;;;;;;;;;5032509;28;20446;-62
2023/09/27 09:47:37;;;;;;;3.07;2.67;;;;;;;;;;5023963;28;20456;-62
2023/09/27 09:50:09;;;;;;;3.70;2.40;;;;;;;;;;5031814;28;20467;-62
2023/09/27 09:52:39;;;;;;;3.40;1.97;;;;;;;;;;5033408;28;20440;-63
2023/09/27 09:55:08;;;;;;;3.57;2.00;;;;;;;;;;5032686;28;20446;-63
2023/09/27 09:57:36;;;;;;;4.50;2.13;;;;;;;;;;5032717;28;20439;-62
2023/09/27 10:00:12;;;;;;;3.70;2.10;;;;;;;;;;5032500;28;20471;-63
2023/09/27 10:02:42;;;;;;;2.60;1.50;;;;;;;;;;5033104;28;20563;-63
2023/09/27 10:05:12;;;;;;;4.20;2.30;;;;;;;;;;5033307;28;20442;-62
2023/09/27 10:07:40;;;;;;;3.20;1.70;;;;;;;;;;5031801;28;21006;-63
2023/09/27 10:10:09;;;;;;;3.10;1.87;;;;;;;;;;5032839;28;20467;-62
2023/09/27 10:12:36;;;;;;;4.23;2.70;;;;;;;;;;5033031;28;20458;-63
2023/09/27 10:15:03;;;;;;;3.13;1.80;;;;;;;;;;5033014;28;20450;-62
2023/09/27 10:17:33;;;;;;;3.40;2.20;;;;;;;;;;5031857;28;20444;-62
2023/09/27 10:20:12;;;;;;;2.80;2.27;;;;;;;;;;5019329;28;20513;-63
2023/09/27 10:22:41;;;;;;;3.23;2.10;;;;;;;;;;5031884;28;20984;-62
2023/09/27 10:25:27;;;;;;;2.70;1.67;;;;;;;;;;5032415;28;20462;-62
2023/09/27 10:28:11;;;;;;;2.90;1.73;;;;;;;;;;5031647;28;20481;-63
2023/09/27 10:31:17;;;;;;;3.00;1.80;;;;;;;;;;5031595;28;20447;-62
2023/09/27 10:33:44;;;;;;;5.60;2.20;;;;;;;;;;4951683;29;20979;-63
2023/09/27 10:36:30;;;;;;;3.80;3.20;;;;;;;;;;4952168;29;20533;-63
2023/09/27 10:39:07;;;;;;;3.47;1.90;;;;;;;;;;4989369;28;20851;-63
2023/09/27 10:41:43;;;;;;;2.63;1.80;;;;;;;;;;5032194;28;20439;-63
2023/09/27 10:44:11;;;;;;;2.87;1.77;;;;;;;;;;5032070;28;20446;-63
2023/09/27 10:46:42;;;;;;;2.73;1.70;;;;;;;;;;5031926;28;20447;-63
2023/09/27 10:49:09;;;;;;;3.10;2.07;;;;;;;;;;5031671;28;20474;-63
2023/09/27 10:51:36;;;;;;;3.00;1.77;;;;;;;;;;5032549;28;20451;-63
2023/09/27 10:54:08;;;;;;;3.07;2.00;;;;;;;;;;5032430;28;20477;-62
2023/09/27 10:56:35;;;;;;;3.73;1.70;;;;;;;;;;5031822;28;20948;-62
2023/09/27 10:59:03;;;;;;;2.70;2.00;;;;;;;;;;5030584;28;21297;-63
2023/09/27 11:01:31;;;;;;;2.53;2.03;;;;;;;;;;5031743;28;20478;-63
2023/09/27 11:03:58;;;;;;;1.97;1.27;;;;;;;;;;5031924;28;20487;-63
2023/09/27 11:06:26;;;;;;;2.50;1.43;;;;;;;;;;5031309;28;20668;-63
2023/09/27 11:08:53;;;;;;;2.63;1.83;;;;;;;;;;5030860;28;20485;-65
2023/09/27 11:11:22;;;;;;;2.77;1.50;;;;;;;;;;5032213;28;20443;-64
2023/09/27 11:13:49;;;;;;;3.27;1.80;;;;;;;;;;5020311;28;20456;-63
2023/09/27 11:16:18;;;;;;;2.90;1.93;;;;;;;;;;5031835;28;20439;-63
2023/09/27 11:18:46;;;;;;;3.47;1.97;;;;;;;;;;5031478;28;20463;-62
2023/09/27 11:21:13;;;;;;;4.90;2.33;;;;;;;;;;5032312;28;20461;-64
2023/09/27 11:23:53;;;;;;;3.20;2.30;;;;;;;;;;5031299;28;20482;-63
2023/09/27 11:26:22;;;;;;;4.00;1.43;;;;;;;;;;5031891;28;20450;-63
2023/09/27 11:28:56;;;;;;;3.23;1.83;;;;;;;;;;5030700;28;20479;-63
2023/09/27 11:31:23;;;;;;;3.73;1.93;;;;;;;;;;5023615;28;20459;-63
2023/09/27 11:33:50;;;;;;;2.77;1.83;;;;;;;;;;5029878;28;20439;-62
2023/09/27 11:36:17;;;;;;;12.43;9.10;;;;;;;;;;5030059;28;20439;-63
2023/09/27 11:38:49;;;;;;;2.37;1.60;;;;;;;;;;5031835;28;20485;-63
2023/09/27 11:41:16;;;;;;;2.60;1.50;;;;;;;;;;5033702;28;20466;-63
2023/09/27 11:43:45;;;;;;;2.80;1.73;;;;;;;;;;5030461;28;20553;-63
2023/09/27 11:46:12;;;;;;;2.67;1.10;;;;;;;;;;5019901;28;20758;-63
2023/09/27 11:48:40;;;;;;;1.60;1.20;;;;;;;;;;5039644;28;20463;-62
2023/09/27 11:51:07;;;;;;;2.73;1.50;;;;;;;;;;5041447;28;20959;-63
2023/09/27 11:53:34;;;;;;;2.23;1.63;;;;;;;;;;5042478;28;20443;-62
2023/09/27 11:56:02;;;;;;;2.00;1.40;;;;;;;;;;5040992;28;20443;-61
2023/09/27 11:58:29;;;;;;;2.50;1.37;;;;;;;;;;5036131;28;20470;-63
2023/09/27 12:00:57;;;;;;;2.23;1.50;;;;;;;;;;5034322;28;20935;-63
2023/09/27 12:03:25;;;;;;;3.43;1.90;;;;;;;;;;5032476;28;20841;-63
2023/09/27 12:05:52;;;;;;;2.30;1.50;;;;;;;;;;5034086;28;20462;-63
2023/09/27 12:08:19;;;;;;;2.40;1.50;;;;;;;;;;5033507;28;20479;-62
2023/09/27 12:10:46;;;;;;;3.10;1.43;;;;;;;;;;5034592;28;20501;-62
2023/09/27 12:13:13;;;;;;;2.07;1.17;;;;;;;;;;5034742;28;20439;-62
2023/09/27 12:15:41;;;;;;;2.60;1.80;;;;;;;;;;5034194;28;20538;-63
2023/09/27 12:18:09;;;;;;;3.23;2.10;;;;;;;;;;5033701;28;20940;-62
2023/09/27 12:20:39;;;;;;;3.40;1.93;;;;;;;;;;5034721;28;20452;-62
2023/09/27 12:23:06;;;;;;;2.60;1.70;;;;;;;;;;5034045;28;20510;-62
2023/09/27 12:25:34;;;;;;;3.30;1.73;;;;;;;;;;5033702;28;20447;-62
2023/09/27 12:28:01;;;;;;;3.33;1.77;;;;;;;;;;5033814;28;20443;-62
2023/09/27 12:30:28;;;;;;;3.00;1.70;;;;;;;;;;5034126;28;20450;-64
2023/09/27 12:32:55;;;;;;;4.30;1.83;;;;;;;;;;5034169;28;20443;-64
2023/09/27 12:35:24;;;;;;;2.80;1.77;;;;;;;;;;5034403;28;20462;-64
2023/09/27 12:37:51;;;;;;;1.90;1.50;;;;;;;;;;5033841;28;20439;-64
2023/09/27 12:40:18;;;;;;;3.00;2.07;;;;;;;;;;5034092;28;20459;-63
2023/09/27 12:42:45;;;;;;;3.80;1.93;;;;;;;;;;5033176;28;20482;-63
2023/09/27 12:45:12;;;;;;;3.57;2.33;;;;;;;;;;5033514;28;20439;-64
2023/09/27 12:47:41;;;;;;;2.60;1.47;;;;;;;;;;5033153;28;20442;-64
2023/09/27 12:50:08;;;;;;;4.73;1.87;;;;;;;;;;5033735;28;20546;-64
2023/09/27 12:52:37;;;;;;;3.03;1.80;;;;;;;;;;5033393;28;20439;-63
2023/09/27 12:55:05;;;;;;;2.77;1.80;;;;;;;;;;5033523;28;20495;-64
2023/09/27 12:57:32;;;;;;;2.00;1.50;;;;;;;;;;5033117;28;20947;-64
2023/09/27 12:59:59;;;;;;;5.40;2.20;;;;;;;;;;5033819;28;20471;-64
2023/09/27 13:02:26;;;;;;;2.17;1.40;;;;;;;;;;5032329;28;20458;-64
2023/09/27 13:04:53;;;;;;;3.17;1.63;;;;;;;;;;5033401;28;20513;-64
2023/09/27 13:07:20;;;;;;;3.37;1.63;;;;;;;;;;5033116;28;20455;-63
2023/09/27 13:09:49;;;;;;;2.63;1.80;;;;;;;;;;5032965;28;20470;-64
2023/09/27 13:12:16;;;;;;;4.30;2.03;;;;;;;;;;5033117;28;20477;-63
2023/09/27 13:14:43;;;;;;;1.60;1.10;;;;;;;;;;5033132;28;20929;-63
2023/09/27 13:17:11;;;;;;;3.33;1.80;;;;;;;;;;5033106;28;20443;-62
2023/09/27 13:19:38;;;;;;;2.13;1.53;;;;;;;;;;5032268;28;20550;-63
2023/09/27 13:22:06;;;;;;;2.50;1.60;;;;;;;;;;5033159;28;20447;-63
2023/09/27 13:24:33;;;;;;;2.60;1.67;;;;;;;;;;5033010;28;21050;-63
2023/09/27 13:27:02;;;;;;;2.50;2.03;;;;;;;;;;5032762;28;20447;-63
2023/09/27 13:29:29;;;;;;;3.03;2.30;;;;;;;;;;5033008;28;20467;-62
2023/09/27 13:31:56;;;;;;;3.00;1.77;;;;;;;;;;5033152;28;20469;-63
2023/09/27 13:34:23;;;;;;;2.43;1.43;;;;;;;;;;5030066;28;20526;-63
2023/09/27 13:36:51;;;;;;;1.87;1.30;;;;;;;;;;5031617;28;20465;-62
2023/09/27 13:39:18;;;;;;;2.30;1.20;;;;;;;;;;5032850;28;20470;-63
2023/09/27 13:41:48;;;;;;;1.93;1.27;;;;;;;;;;5033204;28;20450;-64
2023/09/27 13:44:16;;;;;;;3.60;1.50;;;;;;;;;;5032669;28;20489;-63
2023/09/27 13:46:44;;;;;;;2.00;1.33;;;;;;;;;;5032340;28;20439;-63
2023/09/27 13:49:11;;;;;;;1.70;1.03;;;;;;;;;;5029365;28;20546;-63
2023/09/27 13:51:38;;;;;;;9.60;6.37;;;;;;;;;;5032378;28;20439;-63
2023/09/27 13:54:06;;;;;;;2.47;1.57;;;;;;;;;;5032338;28;20465;-63
2023/09/27 13:56:33;;;;;;;3.03;2.03;;;;;;;;;;5032045;28;20932;-63
2023/09/27 13:59:00;;;;;;;2.60;1.80;;;;;;;;;;5031959;28;20467;-63
2023/09/27 14:01:30;;;;;;;2.30;1.20;;;;;;;;;;5032642;28;20443;-63
2023/09/27 14:03:58;;;;;;;3.00;1.53;;;;;;;;;;5031149;28;21017;-64
2023/09/27 14:06:25;;;;;;;3.50;1.73;;;;;;;;;;5032093;28;20816;-63
2023/09/27 14:08:52;;;;;;;2.10;1.70;;;;;;;;;;5031434;28;21006;-63
2023/09/27 14:11:20;;;;;;;3.70;2.17;;;;;;;;;;5032105;28;20461;-64
2023/09/27 14:13:47;;;;;;;3.50;1.57;;;;;;;;;;5031484;28;20497;-63
2023/09/27 14:16:16;;;;;;;2.33;1.57;;;;;;;;;;5032139;28;20450;-62
2023/09/27 14:18:44;;;;;;;2.43;1.60;;;;;;;;;;5031738;28;20481;-63
2023/09/27 14:21:13;;;;;;;2.43;1.80;;;;;;;;;;5032103;28;20442;-63
2023/09/27 14:23:41;;;;;;;2.77;2.00;;;;;;;;;;5032273;28;20889;-63
2023/09/27 14:26:09;;;;;;;2.37;1.50;;;;;;;;;;5032470;28;20803;-62
2023/09/27 14:28:36;;;;;;;3.10;1.70;;;;;;;;;;5031831;28;20532;-63
2023/09/27 14:31:03;;;;;;;2.50;2.10;;;;;;;;;;5031205;28;20443;-63
2023/09/27 14:33:30;;;;;;;3.40;1.80;;;;;;;;;;5031721;28;20447;-62
2023/09/27 14:35:59;;;;;;;2.43;1.87;;;;;;;;;;5032218;28;20786;-62
2023/09/27 14:38:28;;;;;;;2.00;1.50;;;;;;;;;;5031928;28;20477;-62
2023/09/27 14:40:55;;;;;;;2.10;1.50;;;;;;;;;;5031499;28;20506;-62
2023/09/27 14:43:22;;;;;;;4.17;2.00;;;;;;;;;;5031954;28;20482;-62
2023/09/27 14:45:49;;;;;;;2.40;1.53;;;;;;;;;;5032166;28;20789;-62
2023/09/27 14:48:17;;;;;;;3.60;1.80;;;;;;;;;;5031075;28;20451;-62
2023/09/27 14:50:44;;;;;;;2.50;1.60;;;;;;;;;;5031701;28;20868;-62
2023/09/27 14:53:12;;;;;;;2.60;1.73;;;;;;;;;;5031904;28;20955;-62
2023/09/27 14:55:39;;;;;;;3.17;1.70;;;;;;;;;;5031529;28;20538;-62
2023/09/27 14:58:08;;;;;;;3.17;2.30;;;;;;;;;;5031129;28;20347;-62
2023/09/27 15:00:35;;;;;;;2.73;2.00;;;;;;;;;;5031742;28;20254;-63
2023/09/27 15:03:02;;;;;;;2.20;1.70;;;;;;;;;;5031334;28;20881;-62
2023/09/27 15:05:30;;;;;;;3.15;1.60;;;;;;;;;;5030665;28;20204;-62
2023/09/27 15:10:35;;;;;;;2.30;1.50;;;;;;;;;;4769236;26;20706;-68
2023/09/27 15:13:02;;;;;;;2.10;1.60;;;;;;;;;;5004816;28;20678;-68
2023/09/27 15:15:29;;;;;;;2.92;1.77;;;;;;;;;;5013059;28;20583;-68
2023/09/27 15:17:57;;;;;;;2.67;1.60;;;;;;;;;;5015650;28;20204;-68
2023/09/27 15:20:25;;;;;;;2.22;1.65;;;;;;;;;;4975350;28;20659;-68
2023/09/27 15:22:55;;;;;;;2.33;1.55;;;;;;;;;;4976905;28;20206;-68
2023/09/27 15:25:22;;;;;;;4.18;1.80;;;;;;;;;;4976364;28;20224;-68
2023/09/27 15:27:50;;;;;;;1.98;1.52;;;;;;;;;;4981394;28;20220;-68
2023/09/27 15:30:17;;;;;;;3.17;1.90;;;;;;;;;;4980655;28;20268;-68
2023/09/27 15:32:44;;;;;;;4.22;1.88;;;;;;;;;;4994406;28;20210;-69
2023/09/27 15:35:12;;;;;;;3.33;1.83;;;;;;;;;;4984582;28;20240;-67
2023/09/27 15:37:51;;;;;;;3.75;1.92;;;;;;;;;;4993160;28;20252;-67
2023/09/27 15:40:19;;;;;;;3.00;1.52;;;;;;;;;;4985536;28;20304;-67
2023/09/27 15:42:52;;;;;;;2.10;1.40;;;;;;;;;;4981969;28;20296;-67
2023/09/27 15:45:20;;;;;;;2.20;1.63;;;;;;;;;;4985755;28;20218;-67
2023/09/27 15:47:47;;;;;;;2.10;1.35;;;;;;;;;;4989149;28;20202;-68
2023/09/27 15:50:14;;;;;;;2.00;1.48;;;;;;;;;;4991719;28;21514;-68
2023/09/27 15:52:41;;;;;;;2.88;2.03;;;;;;;;;;4986902;28;20202;-67
2023/09/27 15:55:09;;;;;;;13.18;8.75;;;;;;;;;;4984235;28;20198;-67
2023/09/27 15:57:37;;;;;;;5.68;2.60;;;;;;;;;;4986736;28;20289;-67
2023/09/27 16:00:11;;;;;;;7.97;4.90;;;;;;;;;;4993932;28;20237;-68
2023/09/27 16:02:38;;;;;;;5.80;2.20;;;;;;;;;;4981813;28;20738;-67
2023/09/27 16:05:05;;;;;;;3.30;2.08;;;;;;;;;;4982726;28;20287;-67
2023/09/27 16:07:32;;;;;;;3.75;3.20;;;;;;;;;;4993563;28;20205;-68
2023/09/27 16:09:59;;;;;;;2.50;2.05;;;;;;;;;;4992945;28;20287;-68
2023/09/27 16:12:26;;;;;;;3.13;2.00;;;;;;;;;;4991757;28;20726;-66
2023/09/27 16:14:56;;;;;;;3.42;2.47;;;;;;;;;;4994719;28;20208;-66
2023/09/27 16:17:26;;;;;;;4.05;2.38;;;;;;;;;;4977060;28;20252;-67
2023/09/27 16:19:53;;;;;;;5.65;1.58;;;;;;;;;;4982886;28;20356;-68
2023/09/27 16:22:20;;;;;;;3.00;2.13;;;;;;;;;;4986892;28;20209;-67
2023/09/27 16:24:49;;;;;;;3.97;2.50;;;;;;;;;;4988300;28;20251;-67
2023/09/27 16:27:18;;;;;;;4.35;2.60;;;;;;;;;;4990467;28;20202;-68
2023/09/27 16:29:45;;;;;;;2.88;1.88;;;;;;;;;;4990655;28;20221;-68
2023/09/27 16:32:12;;;;;;;2.92;2.03;;;;;;;;;;4981882;28;20209;-67
2023/09/27 16:34:41;;;;;;;3.15;1.70;;;;;;;;;;4986783;28;20206;-67
2023/09/27 16:37:09;;;;;;;2.92;1.67;;;;;;;;;;4987915;28;20202;-67
2023/09/27 16:39:36;;;;;;;2.77;1.73;;;;;;;;;;4993798;28;20221;-68
2023/09/27 16:42:03;;;;;;;3.87;2.40;;;;;;;;;;4993289;28;20690;-68
2023/09/27 16:44:32;;;;;;;3.43;2.40;;;;;;;;;;4992189;28;21004;-67
2023/09/27 16:47:00;;;;;;;2.53;1.90;;;;;;;;;;4990885;28;20479;-66
2023/09/27 16:49:28;;;;;;;2.23;1.30;;;;;;;;;;4984558;28;20483;-68
2023/09/27 16:51:57;;;;;;;3.10;1.53;;;;;;;;;;4981216;28;20452;-67
2023/09/27 16:54:25;;;;;;;3.07;1.80;;;;;;;;;;4983768;28;20746;-67
2023/09/27 16:56:52;;;;;;;2.80;1.90;;;;;;;;;;4988830;28;20446;-68
2023/09/27 16:59:19;;;;;;;2.70;2.10;;;;;;;;;;4990201;28;20865;-68
2023/09/27 17:01:47;;;;;;;2.97;1.73;;;;;;;;;;4987545;28;20452;-67
2023/09/27 17:04:15;;;;;;;2.57;2.03;;;;;;;;;;4977716;28;20500;-69
2023/09/27 17:06:42;;;;;;;4.90;1.87;;;;;;;;;;4993397;28;20498;-69
2023/09/27 17:09:10;;;;;;;7.30;1.50;;;;;;;;;;4986039;28;20461;-68
2023/09/27 17:11:42;;;;;;;3.07;2.10;;;;;;;;;;4987602;28;20762;-67
2023/09/27 17:14:09;;;;;;;3.57;2.40;;;;;;;;;;4986946;28;20472;-68
2023/09/27 17:16:36;;;;;;;3.50;2.23;;;;;;;;;;4992390;28;20461;-68
2023/09/27 17:19:04;;;;;;;2.57;1.57;;;;;;;;;;4980061;28;20564;-68
2023/09/27 17:21:31;;;;;;;6.90;2.07;;;;;;;;;;4984727;28;20508;-68
2023/09/27 17:24:00;;;;;;;2.90;1.80;;;;;;;;;;4983821;28;20927;-68
2023/09/27 17:26:29;;;;;;;2.53;1.57;;;;;;;;;;4989591;28;20460;-66
2023/09/27 17:28:56;;;;;;;2.60;1.90;;;;;;;;;;4989645;28;20519;-67
2023/09/27 17:31:23;;;;;;;5.83;2.70;;;;;;;;;;4985536;28;20446;-68
2023/09/27 17:33:54;;;;;;;3.93;2.50;;;;;;;;;;4992073;28;20923;-68
2023/09/27 17:36:21;;;;;;;3.87;2.27;;;;;;;;;;4981875;28;20433;-68
2023/09/27 17:38:48;;;;;;;5.97;2.63;;;;;;;;;;4979425;28;20477;-68
2023/09/27 17:41:15;;;;;;;3.40;1.77;;;;;;;;;;4992433;28;20448;-68
2023/09/27 17:43:44;;;;;;;3.37;1.57;;;;;;;;;;4990136;28;20462;-67
2023/09/27 17:46:20;;;;;;;3.00;1.77;;;;;;;;;;4983589;28;20476;-69
2023/09/27 17:48:47;;;;;;;3.67;1.87;;;;;;;;;;4980617;28;20517;-69
2023/09/27 17:51:15;;;;;;;3.77;2.33;;;;;;;;;;4975990;28;20813;-68
2023/09/27 17:53:42;;;;;;;2.93;1.73;;;;;;;;;;4991615;28;20836;-68
2023/09/27 17:56:09;;;;;;;2.53;1.57;;;;;;;;;;4991836;28;20457;-70
2023/09/27 17:58:36;;;;;;;3.00;1.60;;;;;;;;;;4982348;28;20523;-68
2023/09/27 18:01:05;;;;;;;2.70;1.80;;;;;;;;;;4993736;28;20852;-71
2023/09/27 18:03:33;;;;;;;3.70;1.80;;;;;;;;;;4991530;28;20958;-68
2023/09/27 18:06:01;;;;;;;3.30;1.90;;;;;;;;;;4981338;28;20857;-69
2023/09/27 18:08:29;;;;;;;3.90;2.03;;;;;;;;;;4985220;28;20509;-69
2023/09/27 18:10:56;;;;;;;5.07;2.40;;;;;;;;;;4990437;28;20441;-69
2023/09/27 18:13:23;;;;;;;2.93;2.20;;;;;;;;;;4985104;28;20463;-69
2023/09/27 18:15:51;;;;;;;3.43;1.90;;;;;;;;;;4979840;28;20528;-69
2023/09/27 18:18:20;;;;;;;3.10;1.87;;;;;;;;;;4991363;28;20488;-69
2023/09/27 18:20:47;;;;;;;2.80;1.60;;;;;;;;;;4987267;28;20461;-70
2023/09/27 18:23:18;;;;;;;2.60;1.60;;;;;;;;;;4991944;28;20468;-68
2023/09/27 18:25:46;;;;;;;2.70;2.33;;;;;;;;;;4991254;28;20481;-68
2023/09/27 18:28:13;;;;;;;2.30;1.40;;;;;;;;;;4984237;28;20468;-68
2023/09/27 18:30:40;;;;;;;3.67;2.00;;;;;;;;;;4975728;28;20469;-68
2023/09/27 18:33:07;;;;;;;4.13;1.93;;;;;;;;;;4987790;28;20955;-68
2023/09/27 18:35:36;;;;;;;4.67;2.20;;;;;;;;;;4991196;28;20509;-68
2023/09/27 18:38:06;;;;;;;3.07;1.57;;;;;;;;;;4990218;28;20444;-68
2023/09/27 18:40:34;;;;;;;2.07;1.53;;;;;;;;;;4977647;28;20939;-68
2023/09/27 18:43:02;;;;;;;3.47;1.67;;;;;;;;;;4990887;28;20476;-68
2023/09/27 18:45:29;;;;;;;3.03;2.00;;;;;;;;;;4987356;28;20794;-70
2023/09/27 18:47:57;;;;;;;3.20;1.87;;;;;;;;;;4989674;28;20978;-69
2023/09/27 18:50:24;;;;;;;2.67;1.73;;;;;;;;;;4985847;28;20484;-68
2023/09/27 18:52:55;;;;;;;4.73;1.60;;;;;;;;;;4981523;28;20445;-69
2023/09/27 18:55:22;;;;;;;3.13;1.93;;;;;;;;;;4983976;28;20441;-69
2023/09/27 18:57:49;;;;;;;2.63;1.43;;;;;;;;;;4989350;28;20447;-69
2023/09/27 19:00:16;;;;;;;2.20;1.27;;;;;;;;;;4994218;28;20487;-69
2023/09/27 19:02:47;;;;;;;3.30;2.00;;;;;;;;;;4993581;28;20471;-70
2023/09/27 19:05:15;;;;;;;3.43;1.87;;;;;;;;;;4993426;28;20957;-68
2023/09/27 19:07:42;;;;;;;2.97;2.00;;;;;;;;;;4985285;28;20452;-68
2023/09/27 19:10:12;;;;;;;2.40;1.47;;;;;;;;;;4984386;28;20856;-68
2023/09/27 19:12:39;;;;;;;2.70;1.73;;;;;;;;;;4992573;28;20445;-68
2023/09/27 19:15:07;;;;;;;2.87;1.70;;;;;;;;;;4985875;28;20465;-69
2023/09/27 19:17:36;;;;;;;3.00;1.60;;;;;;;;;;4992920;28;20467;-68
2023/09/27 19:20:05;;;;;;;3.43;1.73;;;;;;;;;;4994675;28;20461;-70
2023/09/27 19:22:32;;;;;;;3.30;2.27;;;;;;;;;;4993327;28;20527;-69
2023/09/27 19:24:59;;;;;;;3.73;1.87;;;;;;;;;;4995385;28;20508;-69
2023/09/27 19:27:28;;;;;;;2.90;1.50;;;;;;;;;;4981521;28;20939;-70
2023/09/27 19:29:55;;;;;;;2.70;1.67;;;;;;;;;;4992052;28;20871;-69
2023/09/27 19:32:22;;;;;;;5.63;2.20;;;;;;;;;;4985856;28;20457;-69
2023/09/27 19:34:50;;;;;;;2.80;1.93;;;;;;;;;;4995932;28;20444;-69
2023/09/27 19:37:17;;;;;;;2.40;1.73;;;;;;;;;;4993630;28;20449;-69
2023/09/27 19:39:45;;;;;;;2.43;1.53;;;;;;;;;;4995385;28;20500;-69
2023/09/27 19:42:13;;;;;;;2.97;2.03;;;;;;;;;;4983500;28;20995;-69
2023/09/27 19:44:42;;;;;;;3.60;2.00;;;;;;;;;;4988016;28;21001;-69
2023/09/27 19:47:11;;;;;;;2.10;1.50;;;;;;;;;;4993546;28;20833;-69
2023/09/27 19:49:38;;;;;;;5.20;2.43;;;;;;;;;;4992230;28;20460;-69
2023/09/27 19:52:06;;;;;;;2.67;1.80;;;;;;;;;;4980592;28;20545;-70
2023/09/27 19:54:35;;;;;;;2.67;1.37;;;;;;;;;;4989253;28;20476;-69
2023/09/27 19:57:03;;;;;;;2.40;1.73;;;;;;;;;;4987943;28;20469;-69
2023/09/27 19:59:30;;;;;;;3.30;1.70;;;;;;;;;;4993911;28;20544;-70
2023/09/27 20:01:59;;;;;;;2.80;1.67;;;;;;;;;;4992378;28;20451;-70
2023/09/27 20:04:27;;;;;;;3.33;1.63;;;;;;;;;;4993262;28;20457;-70
2023/09/27 20:06:54;;;;;;;3.30;1.67;;;;;;;;;;4986190;28;20441;-70
2023/09/27 20:09:21;;;;;;;4.13;1.80;;;;;;;;;;4992972;28;20535;-70
2023/09/27 20:11:49;;;;;;;4.73;1.80;;;;;;;;;;4994958;28;20536;-70
2023/09/27 20:14:17;;;;;;;3.00;1.87;;;;;;;;;;4982164;28;20445;-70
2023/09/27 20:16:44;;;;;;;2.67;1.90;;;;;;;;;;4987761;28;20452;-70
2023/09/27 20:19:12;;;;;;;4.37;2.90;;;;;;;;;;4993587;28;20949;-70
2023/09/27 20:21:41;;;;;;;3.67;1.83;;;;;;;;;;4992123;28;20433;-70
2023/09/27 20:24:08;;;;;;;3.07;2.07;;;;;;;;;;4980950;28;20444;-70
2023/09/27 20:26:35;;;;;;;3.10;1.97;;;;;;;;;;4984483;28;20490;-69
2023/09/27 20:29:02;;;;;;;3.80;2.27;;;;;;;;;;4989377;28;21042;-69
2023/09/27 20:31:30;;;;;;;4.03;2.37;;;;;;;;;;4994113;28;20496;-69
2023/09/27 20:33:57;;;;;;;3.50;2.07;;;;;;;;;;4987334;28;20552;-68
2023/09/27 20:36:25;;;;;;;3.70;2.13;;;;;;;;;;4983557;28;20438;-70
2023/09/27 20:38:56;;;;;;;4.83;2.13;;;;;;;;;;4990780;28;20538;-70
2023/09/27 20:41:23;;;;;;;2.40;1.43;;;;;;;;;;4987983;28;20464;-70
2023/09/27 20:43:50;;;;;;;3.50;2.40;;;;;;;;;;4992847;28;20971;-69
2023/09/27 20:46:17;;;;;;;2.87;2.03;;;;;;;;;;4994139;28;20473;-69
2023/09/27 20:48:44;;;;;;;4.40;2.10;;;;;;;;;;4993085;28;20516;-70
2023/09/27 20:51:14;;;;;;;3.50;2.10;;;;;;;;;;4988160;28;20445;-69
2023/09/27 20:53:42;;;;;;;4.07;2.50;;;;;;;;;;4992826;28;20460;-69
2023/09/27 20:56:10;;;;;;;3.30;2.17;;;;;;;;;;4988785;28;20938;-69
2023/09/27 20:58:40;;;;;;;3.87;2.77;;;;;;;;;;4991711;28;20477;-70
2023/09/27 21:01:09;;;;;;;4.50;2.47;;;;;;;;;;4991628;28;20448;-69
2023/09/27 21:03:37;;;;;;;4.33;3.33;;;;;;;;;;4992856;28;20499;-69